Adamstown, Maryland
Current Conditions -  °F | °C
As of 1:05 AM on Tuesday 21 Oct 2014 (Local Time) from KFDK Reporting Station
Broken Clouds Broken Clouds  
Wind Chill: 55°   Ceiling: 7500
Heat Index: 55°   Visibility: 7mi
Dew Point: 50°   Wind: 0mph
Humidity: 82%   Direction: NA
Pressure: 29.93"   Gusts: NA
Location:  39.31°N, 77.47°W
Report Text: KFDK 210505Z AUTO 00000KT 7SM BKN075 13/10 A2993 RMK AO2
Loading
Personal Weather Stations






























Interactive Weather Map
Tropical Storm Tracking
New forecast layout! Learn more

10-Day Weather Forecast

Advertisements
Track Severe Weather on mobile